ACA2846 BIKF-CYWG
Flight info
| Callsign | ACA2846 |
|---|---|
| Flight time | 5h 52m |
| Altitude | 38000 |
| Route | SORIR2C SORIR DCT SOSIT UT594 INBAN DCT 6460N DCT KAGLY/N0473F380 N992A TEFFO DCT 6270N DCT 61N074W DCT YPX DCT KELMU DCT 58N083W DCT YER DCT 5590N DCT 54N092W DCT ZSJ DCT 52N095W DCT NOVEG DCT VITAG KELTO5 |
| Aircraft | A343/H-SDE2E3FGHIJ4J5M1RWXY/LB1D1 |
Departure
| Time | 2026-04-28 09:13 |
|---|---|
| Airport | Keflavik International Airport (BIKF) |
Arrival
| Time | 2026-04-28 15:06 |
|---|---|
| Airport | Winnipeg / James Armstrong Richardson International Airport (CYWG) |
| Time | Latitude | Longitude | Altitude | Speed | Heading |
|---|---|---|---|---|---|
| 2026-04-28 08:42 | 63.99273 | -22.62304 | 145 ft | 0 kts | 360° |
| 2026-04-28 09:03 | 63.99260 | -22.62304 | 144 ft | 4 kts | 2° |
| 2026-04-28 09:04 | 63.99233 | -22.62309 | 144 ft | 4 kts | 8° |
| 2026-04-28 09:04 | 63.99207 | -22.62320 | 144 ft | 4 kts | 17° |
| 2026-04-28 09:04 | 63.99183 | -22.62344 | 144 ft | 4 kts | 42° |
| 2026-04-28 09:04 | 63.99173 | -22.62380 | 144 ft | 1 kts | 90° |
| 2026-04-28 09:05 | 63.99173 | -22.62381 | 144 ft | 0 kts | 90° |
| 2026-04-28 09:10 | 63.99173 | -22.62380 | 144 ft | 1 kts | 90° |
| 2026-04-28 09:10 | 63.99173 | -22.62308 | 144 ft | 8 kts | 90° |
| 2026-04-28 09:10 | 63.99172 | -22.62118 | 144 ft | 15 kts | 90° |
| 2026-04-28 09:10 | 63.99171 | -22.61829 | 146 ft | 20 kts | 90° |
| 2026-04-28 09:11 | 63.99172 | -22.61492 | 153 ft | 22 kts | 90° |
| 2026-04-28 09:11 | 63.99174 | -22.61145 | 160 ft | 20 kts | 89° |
| 2026-04-28 09:11 | 63.99175 | -22.60864 | 166 ft | 15 kts | 90° |
| 2026-04-28 09:11 | 63.99175 | -22.60680 | 172 ft | 8 kts | 90° |
| 2026-04-28 09:12 | 63.99168 | -22.60618 | 175 ft | 1 kts | 111° |
| 2026-04-28 09:12 | 63.99161 | -22.60593 | 176 ft | 4 kts | 126° |
| 2026-04-28 09:12 | 63.99104 | -22.60546 | 177 ft | 15 kts | 176° |
| 2026-04-28 09:12 | 63.98857 | -22.60538 | 176 ft | 62 kts | 181° |
| 2026-04-28 09:13 | 63.98256 | -22.60542 | 177 ft | 109 kts | 179° |
| 2026-04-28 09:13 | 63.97363 | -22.60523 | 178 ft | 147 kts | 179° |
| 2026-04-28 09:13 | 63.96268 | -22.60526 | 415 ft | 163 kts | 180° |
| 2026-04-28 09:13 | 63.95152 | -22.60617 | 1045 ft | 158 kts | 179° |
| 2026-04-28 09:14 | 63.94040 | -22.60625 | 1532 ft | 167 kts | 177° |
| 2026-04-28 09:14 | 63.92835 | -22.60591 | 1939 ft | 180 kts | 177° |
| 2026-04-28 09:14 | 63.91511 | -22.60718 | 2270 ft | 204 kts | 188° |
| 2026-04-28 09:14 | 63.90197 | -22.62131 | 2952 ft | 217 kts | 217° |
| 2026-04-28 09:15 | 63.89364 | -22.65078 | 3689 ft | 237 kts | 249° |
| 2026-04-28 09:15 | 63.89213 | -22.68912 | 4464 ft | 250 kts | 263° |
| 2026-04-28 09:15 | 63.89254 | -22.72912 | 5275 ft | 254 kts | 264° |
| 2026-04-28 09:15 | 63.89351 | -22.76947 | 6119 ft | 260 kts | 269° |
| 2026-04-28 09:16 | 63.89836 | -22.80998 | 6939 ft | 275 kts | 287° |
| 2026-04-28 09:16 | 63.90788 | -22.84827 | 7749 ft | 283 kts | 294° |
| 2026-04-28 09:16 | 63.91866 | -22.88604 | 8527 ft | 287 kts | 294° |
| 2026-04-28 09:16 | 63.92962 | -22.92438 | 9280 ft | 290 kts | 294° |
| 2026-04-28 09:17 | 63.94059 | -22.96317 | 9999 ft | 294 kts | 293° |
| 2026-04-28 09:17 | 63.95185 | -23.00365 | 10369 ft | 312 kts | 292° |
| 2026-04-28 09:17 | 63.96373 | -23.04669 | 10642 ft | 331 kts | 292° |
| 2026-04-28 09:17 | 63.97631 | -23.09228 | 10895 ft | 349 kts | 292° |
| 2026-04-28 09:18 | 63.98952 | -23.14008 | 11187 ft | 365 kts | 293° |
| 2026-04-28 09:18 | 64.00323 | -23.18960 | 11666 ft | 373 kts | 293° |
| 2026-04-28 09:18 | 64.01724 | -23.24029 | 12211 ft | 380 kts | 292° |
| 2026-04-28 09:18 | 64.03140 | -23.29167 | 12752 ft | 386 kts | 292° |
| 2026-04-28 09:19 | 64.04553 | -23.34310 | 13396 ft | 389 kts | 292° |
| 2026-04-28 09:19 | 64.05993 | -23.39571 | 14041 ft | 392 kts | 292° |
| 2026-04-28 09:19 | 64.07440 | -23.44873 | 14708 ft | 394 kts | 291° |
| 2026-04-28 09:19 | 64.08895 | -23.50220 | 15327 ft | 397 kts | 291° |
| 2026-04-28 09:20 | 64.10354 | -23.55597 | 15941 ft | 400 kts | 291° |
| 2026-04-28 09:20 | 64.11826 | -23.61037 | 16527 ft | 403 kts | 291° |
| 2026-04-28 09:20 | 64.13305 | -23.66518 | 17122 ft | 406 kts | 291° |
| 2026-04-28 09:20 | 64.14290 | -23.70177 | 17468 ft | 409 kts | 290° |
| 2026-04-28 09:21 | 64.15788 | -23.75751 | 18009 ft | 412 kts | 290° |
| 2026-04-28 09:21 | 64.17290 | -23.81352 | 18579 ft | 415 kts | 290° |
| 2026-04-28 09:21 | 64.18808 | -23.87030 | 19098 ft | 418 kts | 290° |
| 2026-04-28 09:21 | 64.20332 | -23.92743 | 19645 ft | 420 kts | 290° |
| 2026-04-28 09:22 | 64.21861 | -23.98484 | 20171 ft | 423 kts | 290° |
| 2026-04-28 09:22 | 64.23397 | -24.04273 | 20665 ft | 426 kts | 290° |
| 2026-04-28 09:22 | 64.24944 | -24.10120 | 21134 ft | 429 kts | 290° |
| 2026-04-28 09:22 | 64.26499 | -24.16008 | 21643 ft | 431 kts | 290° |
| 2026-04-28 09:23 | 64.28059 | -24.21929 | 22112 ft | 434 kts | 290° |
| 2026-04-28 09:23 | 64.29623 | -24.27888 | 22536 ft | 437 kts | 290° |
| 2026-04-28 09:23 | 64.31196 | -24.33897 | 22961 ft | 440 kts | 290° |
| 2026-04-28 09:23 | 64.32778 | -24.39955 | 23373 ft | 442 kts | 290° |
| 2026-04-28 09:24 | 64.34366 | -24.46053 | 23774 ft | 445 kts | 290° |
| 2026-04-28 09:24 | 64.35959 | -24.52184 | 24165 ft | 448 kts | 290° |
| 2026-04-28 09:24 | 64.37565 | -24.58383 | 24549 ft | 450 kts | 290° |
| 2026-04-28 09:24 | 64.39140 | -24.64639 | 24900 ft | 449 kts | 287° |
| 2026-04-28 09:25 | 64.40394 | -24.71165 | 25221 ft | 439 kts | 278° |
| 2026-04-28 09:25 | 64.41242 | -24.77888 | 25583 ft | 434 kts | 274° |
| 2026-04-28 09:25 | 64.41955 | -24.84672 | 25933 ft | 434 kts | 272° |
| 2026-04-28 09:25 | 64.42604 | -24.91501 | 26277 ft | 435 kts | 271° |
| 2026-04-28 09:26 | 64.43229 | -24.98365 | 26565 ft | 438 kts | 271° |
| 2026-04-28 09:26 | 64.43853 | -25.05282 | 26864 ft | 440 kts | 271° |
| 2026-04-28 09:26 | 64.44486 | -25.12239 | 27190 ft | 442 kts | 271° |
| 2026-04-28 09:26 | 64.45127 | -25.19208 | 27540 ft | 443 kts | 271° |
| 2026-04-28 09:27 | 64.46414 | -25.33132 | 28114 ft | 447 kts | 271° |
| 2026-04-28 09:27 | 64.47064 | -25.40197 | 28351 ft | 450 kts | 271° |
| 2026-04-28 09:27 | 64.47716 | -25.47310 | 28635 ft | 451 kts | 271° |
| 2026-04-28 09:28 | 64.48367 | -25.54426 | 28942 ft | 452 kts | 271° |
| 2026-04-28 09:28 | 64.49017 | -25.61578 | 29192 ft | 454 kts | 271° |
| 2026-04-28 09:28 | 64.49664 | -25.68745 | 29444 ft | 456 kts | 271° |
| 2026-04-28 09:28 | 64.50311 | -25.75965 | 29693 ft | 457 kts | 271° |
| 2026-04-28 09:29 | 64.50956 | -25.83212 | 29928 ft | 459 kts | 271° |
| 2026-04-28 09:29 | 64.51598 | -25.90454 | 30240 ft | 458 kts | 270° |
| 2026-04-28 09:29 | 64.52238 | -25.97698 | 30575 ft | 457 kts | 270° |
| 2026-04-28 09:29 | 64.52873 | -26.04934 | 30845 ft | 457 kts | 271° |
| 2026-04-28 09:30 | 64.53503 | -26.12184 | 31101 ft | 458 kts | 271° |
| 2026-04-28 09:30 | 64.54129 | -26.19421 | 31409 ft | 457 kts | 271° |
| 2026-04-28 09:30 | 64.54752 | -26.26664 | 31679 ft | 457 kts | 271° |
| 2026-04-28 09:30 | 64.55368 | -26.33901 | 31911 ft | 457 kts | 271° |
| 2026-04-28 09:31 | 64.55983 | -26.41168 | 32140 ft | 458 kts | 271° |
| 2026-04-28 09:31 | 64.56593 | -26.48434 | 32381 ft | 458 kts | 271° |
| 2026-04-28 09:31 | 64.57201 | -26.55704 | 32626 ft | 458 kts | 271° |
| 2026-04-28 09:31 | 64.57807 | -26.62982 | 32852 ft | 458 kts | 271° |
| 2026-04-28 09:32 | 64.58408 | -26.70260 | 33064 ft | 459 kts | 271° |
| 2026-04-28 09:32 | 64.59007 | -26.77558 | 33290 ft | 459 kts | 271° |
| 2026-04-28 09:32 | 64.59602 | -26.84854 | 33508 ft | 459 kts | 272° |
| 2026-04-28 09:32 | 64.60194 | -26.92159 | 33724 ft | 459 kts | 272° |
| 2026-04-28 09:33 | 64.60784 | -26.99476 | 33921 ft | 460 kts | 272° |
| 2026-04-28 09:33 | 64.61370 | -27.06809 | 34079 ft | 461 kts | 272° |
| 2026-04-28 09:33 | 64.61952 | -27.14143 | 34268 ft | 462 kts | 272° |
| 2026-04-28 09:33 | 64.62533 | -27.21498 | 34471 ft | 462 kts | 272° |
| 2026-04-28 09:34 | 64.63112 | -27.28876 | 34669 ft | 462 kts | 272° |
| 2026-04-28 09:34 | 64.63686 | -27.36247 | 34861 ft | 462 kts | 272° |
| 2026-04-28 09:34 | 64.64257 | -27.43618 | 35056 ft | 462 kts | 272° |
| 2026-04-28 09:34 | 64.64824 | -27.50990 | 35233 ft | 462 kts | 272° |
| 2026-04-28 09:35 | 64.65387 | -27.58377 | 35396 ft | 462 kts | 272° |
| 2026-04-28 09:35 | 64.65945 | -27.65748 | 35563 ft | 463 kts | 272° |
| 2026-04-28 09:35 | 64.66502 | -27.73153 | 35733 ft | 463 kts | 272° |
| 2026-04-28 09:35 | 64.67048 | -27.80463 | 35897 ft | 463 kts | 272° |
| 2026-04-28 09:36 | 64.67598 | -27.87880 | 36065 ft | 463 kts | 272° |
| 2026-04-28 09:36 | 64.68150 | -27.95382 | 36209 ft | 464 kts | 272° |
| 2026-04-28 09:36 | 64.68693 | -28.02821 | 36332 ft | 465 kts | 271° |
| 2026-04-28 09:36 | 64.69227 | -28.10185 | 36400 ft | 467 kts | 272° |
| 2026-04-28 09:37 | 64.69766 | -28.17679 | 36514 ft | 468 kts | 271° |
| 2026-04-28 09:37 | 64.70301 | -28.25160 | 36670 ft | 468 kts | 272° |
| 2026-04-28 09:37 | 64.70835 | -28.32659 | 36850 ft | 467 kts | 272° |
| 2026-04-28 09:37 | 64.71363 | -28.40135 | 37069 ft | 465 kts | 272° |
| 2026-04-28 09:38 | 64.71887 | -28.47589 | 37257 ft | 464 kts | 271° |
| 2026-04-28 09:38 | 64.72403 | -28.55014 | 37408 ft | 463 kts | 271° |
| 2026-04-28 09:38 | 64.72914 | -28.62452 | 37571 ft | 462 kts | 271° |
| 2026-04-28 09:38 | 64.73422 | -28.69885 | 37675 ft | 463 kts | 271° |
| 2026-04-28 09:39 | 64.74427 | -28.84794 | 37674 ft | 462 kts | 271° |
| 2026-04-28 09:39 | 64.75417 | -28.99679 | 37671 ft | 462 kts | 271° |
| 2026-04-28 09:40 | 64.76391 | -29.14565 | 37662 ft | 462 kts | 271° |
| 2026-04-28 09:40 | 64.77350 | -29.29466 | 37655 ft | 462 kts | 271° |
| 2026-04-28 09:41 | 64.78295 | -29.44388 | 37646 ft | 462 kts | 271° |
| 2026-04-28 09:41 | 64.79224 | -29.59313 | 37640 ft | 463 kts | 271° |
| 2026-04-28 09:42 | 64.80139 | -29.74248 | 37621 ft | 462 kts | 271° |
| 2026-04-28 09:42 | 64.81039 | -29.89189 | 37616 ft | 462 kts | 271° |
| 2026-04-28 09:43 | 64.81915 | -30.04041 | 37611 ft | 462 kts | 270° |
| 2026-04-28 09:43 | 64.82697 | -30.19013 | 37600 ft | 462 kts | 269° |
| 2026-04-28 09:44 | 64.83425 | -30.34004 | 37589 ft | 462 kts | 269° |
| 2026-04-28 09:44 | 64.84148 | -30.49007 | 37585 ft | 462 kts | 269° |
| 2026-04-28 09:45 | 64.84867 | -30.64002 | 37572 ft | 462 kts | 269° |
| 2026-04-28 09:45 | 64.85575 | -30.79009 | 37569 ft | 462 kts | 269° |
| 2026-04-28 09:46 | 64.86268 | -30.94025 | 37559 ft | 462 kts | 269° |
| 2026-04-28 09:46 | 64.86944 | -31.09036 | 37548 ft | 462 kts | 269° |
| 2026-04-28 09:47 | 64.87605 | -31.24064 | 37539 ft | 462 kts | 269° |
| 2026-04-28 09:47 | 64.88250 | -31.39093 | 37529 ft | 462 kts | 269° |
| 2026-04-28 09:48 | 64.88881 | -31.54133 | 37519 ft | 462 kts | 269° |
| 2026-04-28 09:48 | 64.89498 | -31.69184 | 37508 ft | 462 kts | 268° |
| 2026-04-28 09:49 | 64.90094 | -31.84137 | 37500 ft | 462 kts | 268° |
| 2026-04-28 09:49 | 64.90680 | -31.99193 | 37490 ft | 461 kts | 268° |
| 2026-04-28 09:50 | 64.91250 | -32.14229 | 37486 ft | 461 kts | 268° |
| 2026-04-28 09:50 | 64.91803 | -32.29281 | 37478 ft | 461 kts | 268° |
| 2026-04-28 09:51 | 64.92343 | -32.44348 | 37467 ft | 462 kts | 268° |
| 2026-04-28 09:51 | 64.92866 | -32.59437 | 37456 ft | 462 kts | 268° |
| 2026-04-28 09:52 | 64.93378 | -32.74541 | 37449 ft | 462 kts | 268° |
| 2026-04-28 09:52 | 64.93873 | -32.89646 | 37439 ft | 462 kts | 268° |
| 2026-04-28 09:53 | 64.94351 | -33.04759 | 37428 ft | 462 kts | 268° |
| 2026-04-28 09:53 | 64.94815 | -33.19879 | 37417 ft | 462 kts | 268° |
| 2026-04-28 09:54 | 64.95263 | -33.35009 | 37408 ft | 463 kts | 267° |
| 2026-04-28 09:54 | 64.95698 | -33.50162 | 37401 ft | 463 kts | 267° |
| 2026-04-28 09:55 | 64.96117 | -33.65324 | 37391 ft | 463 kts | 267° |
| 2026-04-28 09:55 | 64.96520 | -33.80486 | 37381 ft | 463 kts | 267° |
| 2026-04-28 09:56 | 64.96906 | -33.95654 | 37377 ft | 463 kts | 267° |
| 2026-04-28 09:56 | 64.97279 | -34.10829 | 37371 ft | 463 kts | 267° |
| 2026-04-28 09:57 | 64.97634 | -34.25929 | 37364 ft | 464 kts | 267° |
| 2026-04-28 09:57 | 64.97977 | -34.41169 | 37350 ft | 465 kts | 267° |
| 2026-04-28 09:58 | 64.98306 | -34.56405 | 37344 ft | 464 kts | 267° |
| 2026-04-28 09:58 | 64.98619 | -34.71643 | 37338 ft | 464 kts | 267° |
| 2026-04-28 09:59 | 64.98914 | -34.86869 | 37336 ft | 464 kts | 267° |
| 2026-04-28 09:59 | 64.99194 | -35.02113 | 37327 ft | 465 kts | 266° |
| 2026-04-28 10:00 | 64.99459 | -35.17372 | 37326 ft | 465 kts | 266° |
| 2026-04-28 10:00 | 64.99709 | -35.32644 | 37317 ft | 464 kts | 266° |
| 2026-04-28 10:01 | 64.99943 | -35.47886 | 37317 ft | 465 kts | 266° |
| 2026-04-28 10:01 | 65.00161 | -35.63156 | 37308 ft | 465 kts | 266° |
| 2026-04-28 10:02 | 65.00364 | -35.78435 | 37307 ft | 465 kts | 266° |
| 2026-04-28 10:02 | 65.00562 | -35.93720 | 37299 ft | 465 kts | 267° |
| 2026-04-28 10:03 | 65.00860 | -36.09015 | 37298 ft | 466 kts | 268° |
| 2026-04-28 10:03 | 65.01176 | -36.24231 | 37296 ft | 467 kts | 268° |
| 2026-04-28 10:04 | 65.01464 | -36.39578 | 37292 ft | 467 kts | 268° |
| 2026-04-28 10:04 | 65.01724 | -36.54915 | 37288 ft | 467 kts | 268° |
| 2026-04-28 10:05 | 65.01964 | -36.70259 | 37289 ft | 467 kts | 268° |
| 2026-04-28 10:05 | 65.02189 | -36.85601 | 37289 ft | 467 kts | 267° |
| 2026-04-28 10:06 | 65.02398 | -37.00960 | 37289 ft | 467 kts | 267° |
| 2026-04-28 10:06 | 65.02593 | -37.16299 | 37289 ft | 467 kts | 267° |
| 2026-04-28 10:07 | 65.02771 | -37.31664 | 37289 ft | 467 kts | 267° |
| 2026-04-28 10:07 | 65.02934 | -37.47034 | 37289 ft | 467 kts | 267° |
| 2026-04-28 10:08 | 65.03082 | -37.62404 | 37289 ft | 467 kts | 267° |
| 2026-04-28 10:08 | 65.03213 | -37.77786 | 37288 ft | 467 kts | 267° |
| 2026-04-28 10:09 | 65.03328 | -37.93158 | 37297 ft | 467 kts | 267° |
| 2026-04-28 10:09 | 65.03426 | -38.08532 | 37299 ft | 467 kts | 267° |
| 2026-04-28 10:10 | 65.03510 | -38.23921 | 37299 ft | 468 kts | 267° |
| 2026-04-28 10:10 | 65.03579 | -38.39326 | 37299 ft | 468 kts | 267° |
| 2026-04-28 10:11 | 65.03624 | -38.52132 | 37308 ft | 468 kts | 267° |
| 2026-04-28 10:11 | 65.03663 | -38.67545 | 37307 ft | 468 kts | 266° |
| 2026-04-28 10:12 | 65.03685 | -38.82965 | 37316 ft | 468 kts | 266° |
| 2026-04-28 10:12 | 65.03693 | -38.98385 | 37317 ft | 468 kts | 266° |
| 2026-04-28 10:13 | 65.03685 | -39.13787 | 37326 ft | 468 kts | 266° |
| 2026-04-28 10:13 | 65.03660 | -39.29210 | 37327 ft | 468 kts | 266° |
| 2026-04-28 10:14 | 65.03620 | -39.44627 | 37336 ft | 468 kts | 266° |
| 2026-04-28 10:14 | 65.03565 | -39.60043 | 37343 ft | 469 kts | 266° |
| 2026-04-28 10:15 | 65.03492 | -39.75365 | 37348 ft | 469 kts | 266° |
| 2026-04-28 10:15 | 65.03404 | -39.90785 | 37351 ft | 469 kts | 266° |
| 2026-04-28 10:16 | 65.03327 | -40.06212 | 37363 ft | 469 kts | 268° |
| 2026-04-28 10:16 | 65.03515 | -40.21663 | 37369 ft | 470 kts | 270° |
| 2026-04-28 10:17 | 65.03766 | -40.37113 | 37373 ft | 470 kts | 269° |
| 2026-04-28 10:17 | 65.03963 | -40.52574 | 37391 ft | 470 kts | 269° |
| 2026-04-28 10:18 | 65.04116 | -40.68034 | 37395 ft | 470 kts | 269° |
| 2026-04-28 10:18 | 65.04244 | -40.83486 | 37407 ft | 469 kts | 269° |
| 2026-04-28 10:19 | 65.04357 | -40.98940 | 37416 ft | 469 kts | 268° |
| 2026-04-28 10:19 | 65.04456 | -41.14383 | 37426 ft | 469 kts | 268° |
| 2026-04-28 10:20 | 65.04538 | -41.29824 | 37436 ft | 469 kts | 268° |
| 2026-04-28 10:20 | 65.04605 | -41.45267 | 37446 ft | 469 kts | 268° |
| 2026-04-28 10:21 | 65.04657 | -41.60675 | 37456 ft | 469 kts | 268° |
| 2026-04-28 10:21 | 65.04691 | -41.76119 | 37465 ft | 468 kts | 268° |
| 2026-04-28 10:22 | 65.04710 | -41.91545 | 37475 ft | 468 kts | 268° |
| 2026-04-28 10:22 | 65.04713 | -42.06956 | 37486 ft | 468 kts | 268° |
| 2026-04-28 10:23 | 65.04700 | -42.22371 | 37486 ft | 467 kts | 268° |
| 2026-04-28 10:23 | 65.04672 | -42.37748 | 37498 ft | 467 kts | 268° |
| 2026-04-28 10:24 | 65.04628 | -42.53019 | 37506 ft | 467 kts | 268° |
| 2026-04-28 10:24 | 65.04568 | -42.68365 | 37518 ft | 466 kts | 268° |
| 2026-04-28 10:25 | 65.04493 | -42.83724 | 37532 ft | 466 kts | 268° |
| 2026-04-28 10:25 | 65.04402 | -42.99071 | 37542 ft | 466 kts | 268° |
| 2026-04-28 10:26 | 65.04295 | -43.14417 | 37552 ft | 466 kts | 268° |
| 2026-04-28 10:26 | 65.04172 | -43.29773 | 37561 ft | 466 kts | 267° |
| 2026-04-28 10:27 | 65.04034 | -43.45082 | 37571 ft | 465 kts | 267° |
| 2026-04-28 10:27 | 65.03880 | -43.60395 | 37582 ft | 464 kts | 267° |
| 2026-04-28 10:28 | 65.03712 | -43.75677 | 37599 ft | 464 kts | 267° |
| 2026-04-28 10:29 | 65.03428 | -43.98599 | 37613 ft | 464 kts | 267° |
| 2026-04-28 10:29 | 65.03220 | -44.13878 | 37617 ft | 465 kts | 267° |
| 2026-04-28 10:30 | 65.02996 | -44.29154 | 37626 ft | 464 kts | 267° |
| 2026-04-28 10:30 | 65.02756 | -44.44420 | 37636 ft | 464 kts | 267° |
| 2026-04-28 10:31 | 65.02502 | -44.59658 | 37646 ft | 464 kts | 267° |
| 2026-04-28 10:31 | 65.02232 | -44.74910 | 37656 ft | 464 kts | 266° |
| 2026-04-28 10:32 | 65.01948 | -44.90152 | 37665 ft | 464 kts | 266° |
| 2026-04-28 10:32 | 65.01649 | -45.05281 | 37674 ft | 464 kts | 266° |
| 2026-04-28 10:33 | 65.01333 | -45.20517 | 37683 ft | 464 kts | 266° |
| 2026-04-28 10:33 | 65.01000 | -45.35756 | 37692 ft | 464 kts | 266° |
| 2026-04-28 10:34 | 65.00653 | -45.50994 | 37701 ft | 464 kts | 266° |
| 2026-04-28 10:34 | 65.00289 | -45.66242 | 37729 ft | 465 kts | 266° |
| 2026-04-28 10:35 | 64.99910 | -45.81488 | 37755 ft | 465 kts | 266° |
| 2026-04-28 10:35 | 64.99515 | -45.96730 | 37783 ft | 464 kts | 266° |
| 2026-04-28 10:36 | 64.99104 | -46.11965 | 37810 ft | 465 kts | 266° |
| 2026-04-28 10:36 | 64.98679 | -46.27192 | 37831 ft | 464 kts | 266° |
| 2026-04-28 10:37 | 64.98239 | -46.42396 | 37840 ft | 464 kts | 266° |
| 2026-04-28 10:37 | 64.97784 | -46.57608 | 37847 ft | 464 kts | 266° |
| 2026-04-28 10:38 | 64.97311 | -46.72805 | 37852 ft | 464 kts | 265° |
| 2026-04-28 10:38 | 64.96824 | -46.87994 | 37858 ft | 464 kts | 265° |
| 2026-04-28 10:39 | 64.96322 | -47.03179 | 37866 ft | 464 kts | 265° |
| 2026-04-28 10:39 | 64.95807 | -47.18272 | 37873 ft | 464 kts | 265° |
| 2026-04-28 10:40 | 64.95273 | -47.33459 | 37881 ft | 464 kts | 265° |
| 2026-04-28 10:40 | 64.94724 | -47.48636 | 37887 ft | 464 kts | 265° |
| 2026-04-28 10:41 | 64.94160 | -47.63806 | 37886 ft | 464 kts | 265° |
| 2026-04-28 10:41 | 64.93581 | -47.78955 | 37898 ft | 464 kts | 265° |
| 2026-04-28 10:42 | 64.92987 | -47.94096 | 37898 ft | 464 kts | 265° |
| 2026-04-28 10:42 | 64.92378 | -48.09232 | 37906 ft | 464 kts | 265° |
| 2026-04-28 10:43 | 64.91753 | -48.24336 | 37910 ft | 463 kts | 265° |
| 2026-04-28 10:43 | 64.91113 | -48.39430 | 37915 ft | 463 kts | 264° |
| 2026-04-28 10:44 | 64.90459 | -48.54507 | 37920 ft | 463 kts | 264° |
| 2026-04-28 10:44 | 64.89788 | -48.69584 | 37926 ft | 463 kts | 264° |
| 2026-04-28 10:45 | 64.89103 | -48.84660 | 37932 ft | 463 kts | 264° |
| 2026-04-28 10:45 | 64.88404 | -48.99728 | 37933 ft | 463 kts | 264° |
| 2026-04-28 10:46 | 64.87693 | -49.14688 | 37935 ft | 463 kts | 264° |
| 2026-04-28 10:46 | 64.86963 | -49.29715 | 37946 ft | 462 kts | 264° |
| 2026-04-28 10:47 | 64.86218 | -49.44725 | 37944 ft | 462 kts | 264° |
| 2026-04-28 10:47 | 64.85459 | -49.59736 | 37954 ft | 462 kts | 264° |
| 2026-04-28 10:48 | 64.84687 | -49.74712 | 37954 ft | 461 kts | 264° |
| 2026-04-28 10:48 | 64.83898 | -49.89677 | 37957 ft | 461 kts | 264° |
| 2026-04-28 10:49 | 64.83099 | -50.04632 | 37959 ft | 461 kts | 264° |
| 2026-04-28 10:49 | 64.82367 | -50.19566 | 37955 ft | 459 kts | 264° |
| 2026-04-28 10:50 | 64.81650 | -50.34470 | 37963 ft | 459 kts | 264° |
| 2026-04-28 10:50 | 64.80910 | -50.49364 | 37973 ft | 459 kts | 264° |
| 2026-04-28 10:51 | 64.80144 | -50.64259 | 37973 ft | 460 kts | 264° |
| 2026-04-28 10:51 | 64.79363 | -50.79126 | 37964 ft | 459 kts | 264° |
| 2026-04-28 10:52 | 64.78567 | -50.93975 | 37982 ft | 459 kts | 264° |
| 2026-04-28 10:52 | 64.77757 | -51.08806 | 37979 ft | 459 kts | 264° |
| 2026-04-28 10:53 | 64.76933 | -51.23628 | 37989 ft | 458 kts | 264° |
| 2026-04-28 10:53 | 64.76095 | -51.38415 | 37990 ft | 458 kts | 264° |
| 2026-04-28 10:54 | 64.75243 | -51.53197 | 37988 ft | 458 kts | 264° |
| 2026-04-28 10:54 | 64.74376 | -51.67957 | 37991 ft | 457 kts | 264° |
| 2026-04-28 10:55 | 64.73495 | -51.82685 | 37990 ft | 457 kts | 263° |
| 2026-04-28 10:55 | 64.72607 | -51.97301 | 37989 ft | 456 kts | 263° |
| 2026-04-28 10:56 | 64.71694 | -52.12073 | 37989 ft | 455 kts | 263° |
| 2026-04-28 10:56 | 64.70775 | -52.26707 | 37989 ft | 454 kts | 263° |
| 2026-04-28 10:57 | 64.69849 | -52.41219 | 37990 ft | 454 kts | 263° |
| 2026-04-28 10:57 | 64.68902 | -52.55824 | 37990 ft | 455 kts | 263° |
| 2026-04-28 10:58 | 64.67940 | -52.70429 | 37990 ft | 455 kts | 263° |
| 2026-04-28 10:58 | 64.66963 | -52.85013 | 37989 ft | 455 kts | 263° |
| 2026-04-28 10:59 | 64.65972 | -52.99566 | 37989 ft | 454 kts | 263° |
| 2026-04-28 10:59 | 64.64967 | -53.14117 | 37990 ft | 454 kts | 263° |
| 2026-04-28 11:00 | 64.63952 | -53.28624 | 37991 ft | 453 kts | 263° |
| 2026-04-28 11:00 | 64.62921 | -53.43124 | 37989 ft | 453 kts | 263° |
| 2026-04-28 11:01 | 64.61876 | -53.57592 | 37990 ft | 452 kts | 263° |
| 2026-04-28 11:01 | 64.61001 | -53.69574 | 37990 ft | 451 kts | 263° |
| 2026-04-28 11:02 | 64.59936 | -53.83971 | 37996 ft | 450 kts | 262° |
| 2026-04-28 11:02 | 64.58859 | -53.98323 | 38016 ft | 450 kts | 262° |
| 2026-04-28 11:03 | 64.57769 | -54.12653 | 38017 ft | 449 kts | 262° |
| 2026-04-28 11:03 | 64.56667 | -54.26956 | 38017 ft | 449 kts | 262° |
| 2026-04-28 11:04 | 64.55549 | -54.41243 | 38017 ft | 449 kts | 262° |
| 2026-04-28 11:04 | 64.54418 | -54.55529 | 38017 ft | 449 kts | 262° |
| 2026-04-28 11:05 | 64.53273 | -54.69813 | 38017 ft | 450 kts | 262° |
| 2026-04-28 11:05 | 64.52113 | -54.84086 | 38017 ft | 450 kts | 262° |
| 2026-04-28 11:06 | 64.50940 | -54.98354 | 38017 ft | 450 kts | 262° |
| 2026-04-28 11:06 | 64.49753 | -55.12608 | 38017 ft | 450 kts | 262° |
| 2026-04-28 11:07 | 64.48561 | -55.26743 | 38017 ft | 449 kts | 261° |
| 2026-04-28 11:07 | 64.47348 | -55.40939 | 38022 ft | 449 kts | 261° |
| 2026-04-28 11:08 | 64.46123 | -55.55116 | 38026 ft | 448 kts | 261° |
| 2026-04-28 11:08 | 64.44886 | -55.69263 | 38026 ft | 448 kts | 261° |
| 2026-04-28 11:09 | 64.43638 | -55.83371 | 38026 ft | 447 kts | 261° |
| 2026-04-28 11:09 | 64.42378 | -55.97439 | 38030 ft | 445 kts | 261° |
| 2026-04-28 11:10 | 64.41111 | -56.11420 | 38029 ft | 444 kts | 261° |
| 2026-04-28 11:10 | 64.39833 | -56.25377 | 38026 ft | 443 kts | 261° |
| 2026-04-28 11:11 | 64.38541 | -56.39314 | 38026 ft | 444 kts | 261° |
| 2026-04-28 11:11 | 64.37238 | -56.53244 | 38026 ft | 444 kts | 261° |
| 2026-04-28 11:12 | 64.35919 | -56.67171 | 38026 ft | 444 kts | 261° |
| 2026-04-28 11:12 | 64.34585 | -56.81096 | 38029 ft | 445 kts | 260° |
| 2026-04-28 11:13 | 64.33236 | -56.95034 | 38026 ft | 445 kts | 260° |
| 2026-04-28 11:13 | 64.31875 | -57.08946 | 38026 ft | 445 kts | 260° |
| 2026-04-28 11:14 | 64.30500 | -57.22835 | 38026 ft | 444 kts | 260° |
| 2026-04-28 11:14 | 64.29114 | -57.36702 | 38038 ft | 444 kts | 260° |
| 2026-04-28 11:15 | 64.27727 | -57.50433 | 38045 ft | 443 kts | 260° |
| 2026-04-28 11:15 | 64.26320 | -57.64232 | 38045 ft | 443 kts | 260° |
| 2026-04-28 11:16 | 64.24902 | -57.77999 | 38045 ft | 442 kts | 259° |
| 2026-04-28 11:16 | 64.23473 | -57.91727 | 38045 ft | 441 kts | 259° |
| 2026-04-28 11:17 | 64.22032 | -58.05429 | 38045 ft | 441 kts | 259° |
| 2026-04-28 11:17 | 64.20579 | -58.19106 | 38045 ft | 441 kts | 259° |
| 2026-04-28 11:18 | 64.19115 | -58.32758 | 38045 ft | 441 kts | 259° |
| 2026-04-28 11:18 | 64.17636 | -58.46415 | 38045 ft | 441 kts | 259° |
| 2026-04-28 11:19 | 64.16144 | -58.60076 | 38045 ft | 442 kts | 259° |
| 2026-04-28 11:19 | 64.14636 | -58.73725 | 38045 ft | 442 kts | 259° |
| 2026-04-28 11:20 | 64.13115 | -58.87371 | 38053 ft | 442 kts | 259° |
| 2026-04-28 11:20 | 64.11581 | -59.00996 | 38055 ft | 442 kts | 258° |
| 2026-04-28 11:21 | 64.10035 | -59.14613 | 38054 ft | 442 kts | 258° |
| 2026-04-28 11:21 | 64.08478 | -59.28192 | 38054 ft | 441 kts | 258° |
| 2026-04-28 11:22 | 64.06910 | -59.41752 | 38054 ft | 441 kts | 258° |
| 2026-04-28 11:22 | 64.05341 | -59.55189 | 38055 ft | 441 kts | 258° |
| 2026-04-28 11:23 | 64.03751 | -59.68691 | 38054 ft | 440 kts | 258° |
| 2026-04-28 11:23 | 64.02152 | -59.82154 | 38055 ft | 439 kts | 258° |
| 2026-04-28 11:24 | 64.00541 | -59.95581 | 38054 ft | 439 kts | 258° |
| 2026-04-28 11:24 | 63.98813 | -60.08937 | 38054 ft | 441 kts | 255° |
| 2026-04-28 11:25 | 63.96720 | -60.22085 | 38054 ft | 442 kts | 253° |
| 2026-04-28 11:25 | 63.94585 | -60.35172 | 38055 ft | 441 kts | 253° |
| 2026-04-28 11:26 | 63.92489 | -60.48290 | 38063 ft | 441 kts | 253° |
| 2026-04-28 11:26 | 63.90413 | -60.61390 | 38064 ft | 440 kts | 253° |
| 2026-04-28 11:27 | 63.88336 | -60.74449 | 38063 ft | 440 kts | 253° |
| 2026-04-28 11:27 | 63.86245 | -60.87497 | 38064 ft | 440 kts | 253° |
| 2026-04-28 11:28 | 63.84146 | -61.00487 | 38063 ft | 439 kts | 253° |
| 2026-04-28 11:28 | 63.82034 | -61.13459 | 38063 ft | 439 kts | 253° |
| 2026-04-28 11:29 | 63.79913 | -61.26392 | 38064 ft | 439 kts | 253° |
| 2026-04-28 11:29 | 63.77777 | -61.39325 | 38064 ft | 439 kts | 253° |
| 2026-04-28 11:30 | 63.75645 | -61.52154 | 38064 ft | 439 kts | 253° |
| 2026-04-28 11:30 | 63.72409 | -61.71462 | 38064 ft | 438 kts | 252° |
| 2026-04-28 11:31 | 63.70238 | -61.84308 | 38064 ft | 439 kts | 252° |
| 2026-04-28 11:31 | 63.68050 | -61.97166 | 38063 ft | 439 kts | 252° |
| 2026-04-28 11:32 | 63.65848 | -62.10007 | 38064 ft | 439 kts | 252° |
| 2026-04-28 11:32 | 63.63639 | -62.22808 | 38063 ft | 439 kts | 252° |
| 2026-04-28 11:33 | 63.61420 | -62.35585 | 38071 ft | 438 kts | 252° |
| 2026-04-28 11:33 | 63.59194 | -62.48316 | 38098 ft | 438 kts | 252° |
| 2026-04-28 11:34 | 63.56955 | -62.61043 | 38116 ft | 438 kts | 252° |
| 2026-04-28 11:34 | 63.54708 | -62.73722 | 38110 ft | 437 kts | 252° |
| 2026-04-28 11:35 | 63.52450 | -62.86379 | 38109 ft | 437 kts | 251° |
| 2026-04-28 11:35 | 63.50188 | -62.98989 | 38109 ft | 436 kts | 251° |
| 2026-04-28 11:36 | 63.48045 | -63.11685 | 38110 ft | 435 kts | 254° |
| 2026-04-28 11:36 | 63.46074 | -63.24479 | 38116 ft | 435 kts | 254° |
| 2026-04-28 11:37 | 63.44101 | -63.37150 | 38119 ft | 435 kts | 254° |
| 2026-04-28 11:37 | 63.42067 | -63.49889 | 38119 ft | 435 kts | 253° |
| 2026-04-28 11:38 | 63.40014 | -63.62569 | 38119 ft | 435 kts | 253° |
| 2026-04-28 11:38 | 63.37944 | -63.75250 | 38119 ft | 435 kts | 253° |
| 2026-04-28 11:39 | 63.35866 | -63.87898 | 38119 ft | 435 kts | 253° |
| 2026-04-28 11:39 | 63.33775 | -64.00547 | 38119 ft | 435 kts | 253° |
| 2026-04-28 11:40 | 63.31676 | -64.13158 | 38119 ft | 435 kts | 253° |
| 2026-04-28 11:40 | 63.29563 | -64.25758 | 38119 ft | 434 kts | 252° |
| 2026-04-28 11:41 | 63.27445 | -64.38326 | 38119 ft | 435 kts | 252° |
| 2026-04-28 11:41 | 63.25313 | -64.50885 | 38119 ft | 434 kts | 252° |
| 2026-04-28 11:42 | 63.23169 | -64.63419 | 38119 ft | 434 kts | 252° |
| 2026-04-28 11:42 | 63.21033 | -64.75832 | 38118 ft | 434 kts | 252° |
| 2026-04-28 11:43 | 63.18872 | -64.88303 | 38119 ft | 433 kts | 252° |
| 2026-04-28 11:43 | 63.16705 | -65.00734 | 38118 ft | 433 kts | 252° |
| 2026-04-28 11:44 | 63.14526 | -65.13155 | 38119 ft | 433 kts | 252° |
| 2026-04-28 11:44 | 63.12339 | -65.25538 | 38119 ft | 433 kts | 252° |
| 2026-04-28 11:45 | 63.10138 | -65.37919 | 38119 ft | 433 kts | 251° |
| 2026-04-28 11:45 | 63.07931 | -65.50262 | 38118 ft | 433 kts | 251° |
| 2026-04-28 11:46 | 63.05709 | -65.62602 | 38148 ft | 433 kts | 251° |
| 2026-04-28 11:46 | 63.03477 | -65.74919 | 38164 ft | 432 kts | 251° |
| 2026-04-28 11:47 | 63.01237 | -65.87199 | 38161 ft | 432 kts | 251° |
| 2026-04-28 11:47 | 62.98985 | -65.99470 | 38170 ft | 432 kts | 251° |
| 2026-04-28 11:48 | 62.96727 | -66.11701 | 38174 ft | 432 kts | 251° |
| 2026-04-28 11:48 | 62.94457 | -66.23923 | 38173 ft | 432 kts | 250° |
| 2026-04-28 11:49 | 62.92180 | -66.36105 | 38173 ft | 432 kts | 250° |
| 2026-04-28 11:49 | 62.89890 | -66.48283 | 38173 ft | 431 kts | 250° |
| 2026-04-28 11:50 | 62.87588 | -66.60442 | 38172 ft | 431 kts | 250° |
| 2026-04-28 11:50 | 62.85299 | -66.72466 | 38177 ft | 431 kts | 250° |
| 2026-04-28 11:51 | 62.82983 | -66.84559 | 38173 ft | 431 kts | 250° |
| 2026-04-28 11:51 | 62.80658 | -66.96616 | 38177 ft | 431 kts | 250° |
| 2026-04-28 11:52 | 62.77936 | -67.08326 | 38177 ft | 432 kts | 245° |
| 2026-04-28 11:52 | 62.75061 | -67.19852 | 38172 ft | 433 kts | 244° |
| 2026-04-28 11:53 | 62.72622 | -67.29482 | 38172 ft | 432 kts | 244° |
| 2026-04-28 11:53 | 62.69713 | -67.40929 | 38173 ft | 432 kts | 244° |
| 2026-04-28 11:54 | 62.66822 | -67.52282 | 38172 ft | 431 kts | 244° |
| 2026-04-28 11:54 | 62.63910 | -67.63669 | 38176 ft | 431 kts | 244° |
| 2026-04-28 11:55 | 62.60991 | -67.75030 | 38176 ft | 430 kts | 244° |
| 2026-04-28 11:55 | 62.58065 | -67.86360 | 38175 ft | 430 kts | 244° |
| 2026-04-28 11:56 | 62.55132 | -67.97653 | 38175 ft | 430 kts | 244° |
| 2026-04-28 11:56 | 62.52190 | -68.08925 | 38172 ft | 429 kts | 244° |
| 2026-04-28 11:57 | 62.49246 | -68.20147 | 38173 ft | 429 kts | 244° |
| 2026-04-28 11:57 | 62.46290 | -68.31359 | 38173 ft | 429 kts | 244° |
| 2026-04-28 11:58 | 62.43329 | -68.42535 | 38173 ft | 429 kts | 243° |
| 2026-04-28 11:58 | 62.40352 | -68.53720 | 38169 ft | 430 kts | 243° |
| 2026-04-28 11:59 | 62.37367 | -68.64873 | 38163 ft | 430 kts | 243° |
| 2026-04-28 11:59 | 62.34368 | -68.76020 | 38167 ft | 430 kts | 243° |
| 2026-04-28 12:00 | 62.31364 | -68.87131 | 38164 ft | 430 kts | 243° |
| 2026-04-28 12:00 | 62.28348 | -68.98238 | 38167 ft | 430 kts | 243° |
| 2026-04-28 12:01 | 62.25339 | -69.09260 | 38168 ft | 431 kts | 243° |
| 2026-04-28 12:01 | 62.22285 | -69.20395 | 38166 ft | 431 kts | 243° |
| 2026-04-28 12:02 | 62.19258 | -69.31376 | 38151 ft | 430 kts | 242° |
| 2026-04-28 12:02 | 62.16218 | -69.42348 | 38155 ft | 426 kts | 242° |
| 2026-04-28 12:03 | 62.13194 | -69.53206 | 38158 ft | 424 kts | 242° |
| 2026-04-28 12:03 | 62.10171 | -69.64016 | 38157 ft | 423 kts | 242° |
| 2026-04-28 12:04 | 62.07146 | -69.74785 | 38158 ft | 423 kts | 242° |
| 2026-04-28 12:04 | 62.04111 | -69.85532 | 38158 ft | 423 kts | 242° |
| 2026-04-28 12:05 | 62.01074 | -69.96237 | 38147 ft | 423 kts | 242° |
| 2026-04-28 12:05 | 61.98341 | -70.07265 | 38138 ft | 421 kts | 246° |
| 2026-04-28 12:06 | 61.95767 | -70.18418 | 38154 ft | 420 kts | 247° |
| 2026-04-28 12:06 | 61.93205 | -70.29589 | 38148 ft | 420 kts | 246° |
| 2026-04-28 12:07 | 61.90639 | -70.40708 | 38142 ft | 420 kts | 246° |
| 2026-04-28 12:07 | 61.88058 | -70.51808 | 38149 ft | 419 kts | 246° |
| 2026-04-28 12:08 | 61.85473 | -70.62857 | 38139 ft | 419 kts | 246° |
| 2026-04-28 12:08 | 61.82894 | -70.73821 | 38134 ft | 419 kts | 246° |
| 2026-04-28 12:09 | 61.80294 | -70.84823 | 38151 ft | 418 kts | 246° |
| 2026-04-28 12:09 | 61.77683 | -70.95815 | 38134 ft | 418 kts | 246° |
| 2026-04-28 12:10 | 61.75066 | -71.06774 | 38132 ft | 417 kts | 246° |
| 2026-04-28 12:10 | 61.72447 | -71.17691 | 38135 ft | 417 kts | 246° |
| 2026-04-28 12:11 | 61.69814 | -71.28601 | 38134 ft | 417 kts | 245° |
| 2026-04-28 12:11 | 61.67176 | -71.39489 | 38127 ft | 418 kts | 245° |
| 2026-04-28 12:12 | 61.64523 | -71.50386 | 38110 ft | 418 kts | 245° |
| 2026-04-28 12:12 | 61.61859 | -71.61271 | 38079 ft | 418 kts | 245° |
| 2026-04-28 12:13 | 61.59188 | -71.72128 | 38063 ft | 419 kts | 245° |
| 2026-04-28 12:13 | 61.56504 | -71.82986 | 38064 ft | 419 kts | 245° |
| 2026-04-28 12:14 | 61.53814 | -71.93812 | 38064 ft | 419 kts | 245° |
| 2026-04-28 12:14 | 61.51112 | -72.04633 | 38063 ft | 419 kts | 245° |
| 2026-04-28 12:15 | 61.48406 | -72.15419 | 38064 ft | 419 kts | 244° |
| 2026-04-28 12:15 | 61.45689 | -72.26195 | 38064 ft | 418 kts | 244° |
| 2026-04-28 12:16 | 61.42971 | -72.36922 | 38064 ft | 418 kts | 244° |
| 2026-04-28 12:16 | 61.40244 | -72.47638 | 38064 ft | 417 kts | 244° |
| 2026-04-28 12:17 | 61.37514 | -72.58307 | 38064 ft | 417 kts | 244° |
| 2026-04-28 12:17 | 61.34796 | -72.68881 | 38063 ft | 416 kts | 244° |
| 2026-04-28 12:18 | 61.32052 | -72.79500 | 38064 ft | 416 kts | 244° |
| 2026-04-28 12:18 | 61.29305 | -72.90086 | 38064 ft | 416 kts | 244° |
| 2026-04-28 12:19 | 61.26546 | -73.00669 | 38064 ft | 416 kts | 244° |
| 2026-04-28 12:19 | 61.23785 | -73.11207 | 38054 ft | 415 kts | 244° |
| 2026-04-28 12:20 | 61.21017 | -73.21726 | 38054 ft | 415 kts | 244° |
| 2026-04-28 12:20 | 61.18246 | -73.32207 | 38054 ft | 415 kts | 243° |
| 2026-04-28 12:21 | 61.15463 | -73.42683 | 38054 ft | 415 kts | 243° |
| 2026-04-28 12:21 | 61.12674 | -73.53129 | 38054 ft | 415 kts | 243° |
| 2026-04-28 12:22 | 61.09873 | -73.63571 | 38055 ft | 415 kts | 243° |
| 2026-04-28 12:22 | 61.07068 | -73.73985 | 38045 ft | 415 kts | 243° |
| 2026-04-28 12:23 | 61.04253 | -73.84391 | 38045 ft | 415 kts | 243° |
| 2026-04-28 12:23 | 61.01431 | -73.94765 | 38045 ft | 414 kts | 243° |
| 2026-04-28 12:24 | 60.98617 | -74.05106 | 38045 ft | 414 kts | 243° |
| 2026-04-28 12:24 | 60.95847 | -74.15508 | 38045 ft | 414 kts | 243° |
| 2026-04-28 12:25 | 60.93085 | -74.25895 | 38042 ft | 414 kts | 243° |
| 2026-04-28 12:25 | 60.90305 | -74.36262 | 38036 ft | 413 kts | 243° |
| 2026-04-28 12:26 | 60.87517 | -74.46574 | 38035 ft | 413 kts | 243° |
| 2026-04-28 12:26 | 60.84718 | -74.56877 | 38036 ft | 413 kts | 243° |
| 2026-04-28 12:27 | 60.81909 | -74.67166 | 38036 ft | 413 kts | 243° |
| 2026-04-28 12:27 | 60.79099 | -74.77425 | 38036 ft | 413 kts | 243° |
| 2026-04-28 12:28 | 60.76295 | -74.87611 | 38034 ft | 413 kts | 243° |
| 2026-04-28 12:28 | 60.73470 | -74.97832 | 38028 ft | 413 kts | 243° |
| 2026-04-28 12:29 | 60.69215 | -75.13137 | 38026 ft | 413 kts | 242° |
| 2026-04-28 12:30 | 60.66367 | -75.23321 | 38028 ft | 413 kts | 242° |
| 2026-04-28 12:30 | 60.63514 | -75.33470 | 38026 ft | 412 kts | 242° |
| 2026-04-28 12:31 | 60.60662 | -75.43585 | 38020 ft | 412 kts | 242° |
| 2026-04-28 12:31 | 60.57798 | -75.53695 | 38017 ft | 412 kts | 242° |
| 2026-04-28 12:32 | 60.54926 | -75.63788 | 38017 ft | 412 kts | 242° |
| 2026-04-28 12:32 | 60.52053 | -75.73839 | 38010 ft | 412 kts | 242° |
| 2026-04-28 12:33 | 60.49175 | -75.83855 | 38008 ft | 410 kts | 242° |
| 2026-04-28 12:33 | 60.46292 | -75.93850 | 38009 ft | 410 kts | 242° |
| 2026-04-28 12:34 | 60.43409 | -76.03805 | 38008 ft | 409 kts | 242° |
| 2026-04-28 12:34 | 60.40519 | -76.13741 | 38008 ft | 410 kts | 242° |
| 2026-04-28 12:35 | 60.37622 | -76.23655 | 38008 ft | 410 kts | 241° |
| 2026-04-28 12:35 | 60.34718 | -76.33548 | 38008 ft | 410 kts | 241° |
| 2026-04-28 12:36 | 60.31798 | -76.43457 | 38008 ft | 411 kts | 241° |
| 2026-04-28 12:36 | 60.28869 | -76.53352 | 37999 ft | 411 kts | 241° |
| 2026-04-28 12:37 | 60.25932 | -76.63229 | 37999 ft | 411 kts | 241° |
| 2026-04-28 12:37 | 60.23001 | -76.73047 | 37999 ft | 412 kts | 241° |
| 2026-04-28 12:38 | 60.20041 | -76.82921 | 37998 ft | 413 kts | 241° |
| 2026-04-28 12:38 | 60.17060 | -76.92823 | 37999 ft | 415 kts | 240° |
| 2026-04-28 12:39 | 60.14058 | -77.02749 | 37998 ft | 416 kts | 240° |
| 2026-04-28 12:39 | 60.11045 | -77.12668 | 37999 ft | 417 kts | 240° |
| 2026-04-28 12:40 | 60.08020 | -77.22589 | 37999 ft | 417 kts | 240° |
| 2026-04-28 12:40 | 60.04986 | -77.32495 | 37999 ft | 417 kts | 240° |
| 2026-04-28 12:41 | 60.01924 | -77.42354 | 37998 ft | 417 kts | 240° |
| 2026-04-28 12:41 | 59.98843 | -77.52168 | 37999 ft | 416 kts | 239° |
| 2026-04-28 12:42 | 59.96286 | -77.60294 | 37999 ft | 415 kts | 240° |
| 2026-04-28 12:42 | 59.93216 | -77.70035 | 37999 ft | 415 kts | 239° |
| 2026-04-28 12:43 | 59.90141 | -77.79760 | 37999 ft | 415 kts | 239° |
| 2026-04-28 12:43 | 59.87050 | -77.89490 | 37999 ft | 416 kts | 239° |
| 2026-04-28 12:44 | 59.83949 | -77.99211 | 37999 ft | 416 kts | 239° |
| 2026-04-28 12:44 | 59.80841 | -78.08913 | 37992 ft | 416 kts | 239° |
| 2026-04-28 12:45 | 59.77724 | -78.18596 | 37989 ft | 416 kts | 239° |
| 2026-04-28 12:45 | 59.74624 | -78.28192 | 37990 ft | 416 kts | 239° |
| 2026-04-28 12:46 | 59.71500 | -78.37821 | 37989 ft | 415 kts | 239° |
| 2026-04-28 12:46 | 59.68346 | -78.47505 | 37990 ft | 415 kts | 239° |
| 2026-04-28 12:47 | 59.65237 | -78.57012 | 37990 ft | 415 kts | 239° |
| 2026-04-28 12:47 | 59.62097 | -78.66575 | 37990 ft | 414 kts | 239° |
| 2026-04-28 12:48 | 59.58953 | -78.76106 | 37980 ft | 415 kts | 238° |
| 2026-04-28 12:48 | 59.55800 | -78.85631 | 37980 ft | 414 kts | 238° |
| 2026-04-28 12:49 | 59.52643 | -78.95128 | 37980 ft | 414 kts | 238° |
| 2026-04-28 12:49 | 59.49480 | -79.04605 | 37981 ft | 414 kts | 238° |
| 2026-04-28 12:50 | 59.46307 | -79.14067 | 37980 ft | 414 kts | 238° |
| 2026-04-28 12:50 | 59.43146 | -79.23464 | 37980 ft | 415 kts | 238° |
| 2026-04-28 12:51 | 59.39954 | -79.32915 | 37976 ft | 415 kts | 238° |
| 2026-04-28 12:51 | 59.36754 | -79.42349 | 37976 ft | 415 kts | 238° |
| 2026-04-28 12:52 | 59.33547 | -79.51765 | 37963 ft | 415 kts | 238° |
| 2026-04-28 12:52 | 59.30334 | -79.61163 | 37958 ft | 415 kts | 238° |
| 2026-04-28 12:53 | 59.27112 | -79.70547 | 37973 ft | 415 kts | 238° |
| 2026-04-28 12:53 | 59.23888 | -79.79901 | 37958 ft | 415 kts | 237° |
| 2026-04-28 12:54 | 59.20651 | -79.89254 | 37979 ft | 415 kts | 237° |
| 2026-04-28 12:54 | 59.17411 | -79.98576 | 37976 ft | 415 kts | 237° |
| 2026-04-28 12:55 | 59.14123 | -80.07828 | 37955 ft | 415 kts | 236° |
| 2026-04-28 12:55 | 59.10738 | -80.16956 | 37970 ft | 416 kts | 236° |
| 2026-04-28 12:56 | 59.07343 | -80.26072 | 37964 ft | 416 kts | 236° |
| 2026-04-28 12:56 | 59.03961 | -80.35174 | 37971 ft | 415 kts | 236° |
| 2026-04-28 12:57 | 59.00605 | -80.44199 | 37955 ft | 415 kts | 236° |
| 2026-04-28 12:57 | 58.97219 | -80.53276 | 37964 ft | 415 kts | 236° |
| 2026-04-28 12:58 | 58.93830 | -80.62329 | 37978 ft | 415 kts | 236° |
| 2026-04-28 12:58 | 58.90433 | -80.71363 | 37977 ft | 415 kts | 236° |
| 2026-04-28 12:59 | 58.87032 | -80.80374 | 37977 ft | 415 kts | 235° |
| 2026-04-28 12:59 | 58.83624 | -80.89370 | 37978 ft | 415 kts | 235° |
| 2026-04-28 13:00 | 58.80209 | -80.98348 | 37957 ft | 415 kts | 235° |
| 2026-04-28 13:00 | 58.76790 | -81.07299 | 37970 ft | 415 kts | 235° |
| 2026-04-28 13:01 | 58.73364 | -81.16239 | 37956 ft | 415 kts | 235° |
| 2026-04-28 13:01 | 58.69934 | -81.25154 | 37970 ft | 415 kts | 235° |
| 2026-04-28 13:02 | 58.66496 | -81.34054 | 37955 ft | 415 kts | 235° |
| 2026-04-28 13:02 | 58.63052 | -81.42940 | 37957 ft | 414 kts | 234° |
| 2026-04-28 13:03 | 58.59605 | -81.51804 | 37960 ft | 414 kts | 234° |
| 2026-04-28 13:03 | 58.56155 | -81.60641 | 37962 ft | 414 kts | 234° |
| 2026-04-28 13:04 | 58.52702 | -81.69446 | 37966 ft | 413 kts | 234° |
| 2026-04-28 13:04 | 58.49271 | -81.78172 | 37973 ft | 413 kts | 234° |
| 2026-04-28 13:05 | 58.45812 | -81.86932 | 37942 ft | 413 kts | 234° |
| 2026-04-28 13:05 | 58.42350 | -81.95667 | 37939 ft | 412 kts | 234° |
| 2026-04-28 13:06 | 58.38887 | -82.04373 | 37945 ft | 412 kts | 234° |
| 2026-04-28 13:06 | 58.35416 | -82.13063 | 37941 ft | 412 kts | 234° |
| 2026-04-28 13:07 | 58.31938 | -82.21742 | 37949 ft | 412 kts | 234° |
| 2026-04-28 13:07 | 58.28455 | -82.30407 | 37939 ft | 413 kts | 234° |
| 2026-04-28 13:08 | 58.24967 | -82.39055 | 37939 ft | 412 kts | 234° |
| 2026-04-28 13:08 | 58.21468 | -82.47686 | 37938 ft | 413 kts | 233° |
| 2026-04-28 13:09 | 58.17959 | -82.56307 | 37939 ft | 414 kts | 233° |
| 2026-04-28 13:09 | 58.14440 | -82.64933 | 37939 ft | 414 kts | 233° |
| 2026-04-28 13:10 | 58.10909 | -82.73558 | 37942 ft | 415 kts | 233° |
| 2026-04-28 13:10 | 58.07366 | -82.82177 | 37950 ft | 415 kts | 233° |
| 2026-04-28 13:11 | 58.03816 | -82.90782 | 37939 ft | 415 kts | 233° |
| 2026-04-28 13:11 | 58.00261 | -82.99373 | 37939 ft | 416 kts | 233° |
| 2026-04-28 13:12 | 57.96786 | -83.07986 | 37938 ft | 415 kts | 234° |
| 2026-04-28 13:12 | 57.93377 | -83.16726 | 37926 ft | 413 kts | 234° |
| 2026-04-28 13:13 | 57.89969 | -83.25419 | 37928 ft | 413 kts | 234° |
| 2026-04-28 13:13 | 57.86538 | -83.34085 | 37923 ft | 414 kts | 234° |
| 2026-04-28 13:14 | 57.83087 | -83.42744 | 37926 ft | 414 kts | 234° |
| 2026-04-28 13:14 | 57.79627 | -83.51393 | 37925 ft | 414 kts | 234° |
| 2026-04-28 13:15 | 57.76166 | -83.60016 | 37926 ft | 414 kts | 234° |
| 2026-04-28 13:15 | 57.72701 | -83.68617 | 37928 ft | 414 kts | 234° |
| 2026-04-28 13:16 | 57.69233 | -83.77196 | 37922 ft | 414 kts | 234° |
| 2026-04-28 13:16 | 57.65753 | -83.85771 | 37925 ft | 414 kts | 234° |
| 2026-04-28 13:17 | 57.62266 | -83.94332 | 37920 ft | 414 kts | 234° |
| 2026-04-28 13:17 | 57.58798 | -84.02818 | 37923 ft | 414 kts | 234° |
| 2026-04-28 13:18 | 57.55275 | -84.11403 | 37920 ft | 415 kts | 234° |
| 2026-04-28 13:18 | 57.51793 | -84.19866 | 37899 ft | 415 kts | 234° |
| 2026-04-28 13:19 | 57.48273 | -84.28390 | 37897 ft | 416 kts | 233° |
| 2026-04-28 13:19 | 57.44748 | -84.36891 | 37889 ft | 415 kts | 233° |
| 2026-04-28 13:20 | 57.41218 | -84.45377 | 37885 ft | 415 kts | 233° |
| 2026-04-28 13:20 | 57.37686 | -84.53841 | 37889 ft | 415 kts | 233° |
| 2026-04-28 13:21 | 57.34139 | -84.62305 | 37887 ft | 416 kts | 233° |
| 2026-04-28 13:21 | 57.30584 | -84.70761 | 37887 ft | 417 kts | 233° |
| 2026-04-28 13:22 | 57.27020 | -84.79209 | 37890 ft | 417 kts | 233° |
| 2026-04-28 13:22 | 57.23449 | -84.87640 | 37885 ft | 417 kts | 233° |
| 2026-04-28 13:23 | 57.19873 | -84.96056 | 37884 ft | 417 kts | 233° |
| 2026-04-28 13:23 | 57.16284 | -85.04472 | 37884 ft | 417 kts | 232° |
| 2026-04-28 13:24 | 57.12691 | -85.12869 | 37882 ft | 418 kts | 232° |
| 2026-04-28 13:24 | 57.09108 | -85.21213 | 37878 ft | 418 kts | 232° |
| 2026-04-28 13:25 | 57.05476 | -85.29643 | 37880 ft | 419 kts | 232° |
| 2026-04-28 13:25 | 57.01875 | -85.37970 | 37873 ft | 419 kts | 232° |
| 2026-04-28 13:26 | 56.98243 | -85.46340 | 37873 ft | 419 kts | 232° |
| 2026-04-28 13:26 | 56.94610 | -85.54683 | 37899 ft | 419 kts | 232° |
| 2026-04-28 13:27 | 56.90963 | -85.63031 | 37921 ft | 420 kts | 232° |
| 2026-04-28 13:27 | 56.87308 | -85.71367 | 37944 ft | 421 kts | 232° |
| 2026-04-28 13:28 | 56.83638 | -85.79707 | 37947 ft | 421 kts | 232° |
| 2026-04-28 13:28 | 56.79967 | -85.88020 | 37962 ft | 421 kts | 231° |
| 2026-04-28 13:29 | 56.76287 | -85.96327 | 37966 ft | 421 kts | 231° |
| 2026-04-28 13:29 | 56.72606 | -86.04606 | 37960 ft | 421 kts | 231° |
| 2026-04-28 13:30 | 56.68903 | -86.12906 | 37952 ft | 423 kts | 231° |
| 2026-04-28 13:30 | 56.65181 | -86.21222 | 37958 ft | 424 kts | 231° |
| 2026-04-28 13:31 | 56.59619 | -86.33592 | 37947 ft | 424 kts | 231° |
| 2026-04-28 13:31 | 56.55888 | -86.41854 | 37954 ft | 424 kts | 231° |
| 2026-04-28 13:32 | 56.52145 | -86.50113 | 37955 ft | 424 kts | 231° |
| 2026-04-28 13:32 | 56.48398 | -86.58356 | 37962 ft | 424 kts | 231° |
| 2026-04-28 13:33 | 56.44649 | -86.66571 | 37956 ft | 424 kts | 231° |
| 2026-04-28 13:33 | 56.40890 | -86.74786 | 37961 ft | 424 kts | 231° |
| 2026-04-28 13:34 | 56.37132 | -86.82967 | 37972 ft | 424 kts | 230° |
| 2026-04-28 13:34 | 56.33356 | -86.91158 | 37978 ft | 424 kts | 230° |
| 2026-04-28 13:35 | 56.29583 | -86.99315 | 37978 ft | 424 kts | 230° |
| 2026-04-28 13:35 | 56.26442 | -87.06085 | 37960 ft | 424 kts | 230° |
| 2026-04-28 13:36 | 56.22041 | -87.15537 | 37977 ft | 424 kts | 230° |
| 2026-04-28 13:36 | 56.18871 | -87.22326 | 37979 ft | 424 kts | 230° |
| 2026-04-28 13:37 | 56.15075 | -87.30426 | 37980 ft | 424 kts | 230° |
| 2026-04-28 13:37 | 56.11272 | -87.38517 | 37980 ft | 424 kts | 230° |
| 2026-04-28 13:38 | 56.07468 | -87.46582 | 37979 ft | 423 kts | 230° |
| 2026-04-28 13:38 | 56.03666 | -87.54615 | 37980 ft | 423 kts | 229° |
| 2026-04-28 13:39 | 55.99886 | -87.62574 | 37981 ft | 423 kts | 229° |
| 2026-04-28 13:39 | 55.96232 | -87.70806 | 37981 ft | 423 kts | 233° |
| 2026-04-28 13:40 | 55.92869 | -87.79440 | 37981 ft | 424 kts | 234° |
| 2026-04-28 13:40 | 55.89501 | -87.88066 | 37981 ft | 424 kts | 234° |
| 2026-04-28 13:41 | 55.86080 | -87.96603 | 37981 ft | 423 kts | 233° |
| 2026-04-28 13:41 | 55.82632 | -88.05083 | 37981 ft | 423 kts | 233° |
| 2026-04-28 13:42 | 55.79171 | -88.13547 | 37979 ft | 423 kts | 233° |
| 2026-04-28 13:42 | 55.75700 | -88.22021 | 37981 ft | 425 kts | 233° |
| 2026-04-28 13:43 | 55.72215 | -88.30506 | 37976 ft | 426 kts | 233° |
| 2026-04-28 13:43 | 55.68713 | -88.39002 | 37965 ft | 427 kts | 233° |
| 2026-04-28 13:44 | 55.65208 | -88.47474 | 37977 ft | 427 kts | 233° |
| 2026-04-28 13:44 | 55.61693 | -88.55943 | 37977 ft | 427 kts | 233° |
| 2026-04-28 13:45 | 55.58165 | -88.64412 | 37977 ft | 427 kts | 233° |
| 2026-04-28 13:45 | 55.54631 | -88.72867 | 37968 ft | 428 kts | 233° |
| 2026-04-28 13:46 | 55.51085 | -88.81322 | 37976 ft | 429 kts | 233° |
| 2026-04-28 13:46 | 55.47526 | -88.89779 | 37977 ft | 429 kts | 233° |
| 2026-04-28 13:47 | 55.43960 | -88.98222 | 37955 ft | 429 kts | 232° |
| 2026-04-28 13:47 | 55.40388 | -89.06649 | 37961 ft | 430 kts | 232° |
| 2026-04-28 13:48 | 55.36802 | -89.15081 | 37969 ft | 430 kts | 232° |
| 2026-04-28 13:48 | 55.33211 | -89.23499 | 37958 ft | 430 kts | 232° |
| 2026-04-28 13:49 | 55.29614 | -89.31900 | 37958 ft | 431 kts | 232° |
| 2026-04-28 13:49 | 55.26009 | -89.40290 | 37962 ft | 430 kts | 232° |
| 2026-04-28 13:50 | 55.22401 | -89.48660 | 37956 ft | 430 kts | 232° |
| 2026-04-28 13:50 | 55.18813 | -89.56958 | 37952 ft | 431 kts | 232° |
| 2026-04-28 13:51 | 55.15183 | -89.65322 | 37947 ft | 431 kts | 232° |
| 2026-04-28 13:51 | 55.11556 | -89.73649 | 37948 ft | 431 kts | 232° |
| 2026-04-28 13:52 | 55.07912 | -89.81990 | 37944 ft | 430 kts | 232° |
| 2026-04-28 13:52 | 55.04287 | -89.90256 | 37942 ft | 429 kts | 232° |
| 2026-04-28 13:53 | 55.00657 | -89.98510 | 37953 ft | 429 kts | 232° |
| 2026-04-28 13:53 | 54.96947 | -90.06657 | 37955 ft | 430 kts | 230° |
| 2026-04-28 13:54 | 54.93069 | -90.14576 | 37960 ft | 430 kts | 229° |
| 2026-04-28 13:54 | 54.89174 | -90.22495 | 37955 ft | 431 kts | 229° |
| 2026-04-28 13:55 | 54.85301 | -90.30434 | 37958 ft | 431 kts | 229° |
| 2026-04-28 13:55 | 54.81431 | -90.38387 | 37956 ft | 431 kts | 229° |
| 2026-04-28 13:56 | 54.77559 | -90.46324 | 37972 ft | 432 kts | 229° |
| 2026-04-28 13:56 | 54.73673 | -90.54261 | 37964 ft | 432 kts | 229° |
| 2026-04-28 13:57 | 54.69780 | -90.62188 | 37965 ft | 432 kts | 229° |
| 2026-04-28 13:57 | 54.65881 | -90.70099 | 37950 ft | 432 kts | 229° |
| 2026-04-28 13:58 | 54.61978 | -90.77988 | 37951 ft | 432 kts | 229° |
| 2026-04-28 13:58 | 54.58067 | -90.85872 | 37947 ft | 433 kts | 229° |
| 2026-04-28 13:59 | 54.54148 | -90.93742 | 37952 ft | 432 kts | 229° |
| 2026-04-28 13:59 | 54.50253 | -91.01540 | 37966 ft | 432 kts | 229° |
| 2026-04-28 14:00 | 54.46325 | -91.09378 | 37960 ft | 433 kts | 229° |
| 2026-04-28 14:00 | 54.42395 | -91.17198 | 37960 ft | 433 kts | 229° |
| 2026-04-28 14:01 | 54.38451 | -91.25021 | 37955 ft | 433 kts | 229° |
| 2026-04-28 14:01 | 54.34499 | -91.32836 | 37970 ft | 434 kts | 229° |
| 2026-04-28 14:02 | 54.30542 | -91.40636 | 37964 ft | 434 kts | 229° |
| 2026-04-28 14:02 | 54.26581 | -91.48419 | 37955 ft | 434 kts | 228° |
| 2026-04-28 14:03 | 54.22612 | -91.56188 | 37966 ft | 434 kts | 228° |
| 2026-04-28 14:03 | 54.18639 | -91.63940 | 37962 ft | 434 kts | 228° |
| 2026-04-28 14:04 | 54.14660 | -91.71680 | 37960 ft | 434 kts | 228° |
| 2026-04-28 14:04 | 54.10678 | -91.79406 | 37973 ft | 434 kts | 228° |
| 2026-04-28 14:05 | 54.06692 | -91.87112 | 37981 ft | 434 kts | 228° |
| 2026-04-28 14:05 | 54.02699 | -91.94810 | 37980 ft | 434 kts | 228° |
| 2026-04-28 14:06 | 53.98503 | -92.02158 | 37980 ft | 433 kts | 222° |
| 2026-04-28 14:06 | 53.94003 | -92.08963 | 37980 ft | 433 kts | 221° |
| 2026-04-28 14:07 | 53.89480 | -92.15628 | 37981 ft | 433 kts | 221° |
| 2026-04-28 14:07 | 53.84922 | -92.22318 | 37981 ft | 433 kts | 221° |
| 2026-04-28 14:08 | 53.80369 | -92.29002 | 37980 ft | 433 kts | 221° |
| 2026-04-28 14:08 | 53.75806 | -92.35689 | 37981 ft | 434 kts | 221° |
| 2026-04-28 14:09 | 53.71236 | -92.42370 | 37981 ft | 435 kts | 221° |
| 2026-04-28 14:09 | 53.66657 | -92.49045 | 37979 ft | 435 kts | 220° |
| 2026-04-28 14:10 | 53.62068 | -92.55712 | 37987 ft | 436 kts | 220° |
| 2026-04-28 14:10 | 53.57474 | -92.62365 | 37990 ft | 436 kts | 220° |
| 2026-04-28 14:11 | 53.52863 | -92.69023 | 37990 ft | 437 kts | 220° |
| 2026-04-28 14:11 | 53.48251 | -92.75664 | 37989 ft | 437 kts | 220° |
| 2026-04-28 14:12 | 53.43634 | -92.82292 | 38006 ft | 437 kts | 220° |
| 2026-04-28 14:12 | 53.39015 | -92.88905 | 38007 ft | 437 kts | 220° |
| 2026-04-28 14:13 | 53.34379 | -92.95521 | 38008 ft | 438 kts | 220° |
| 2026-04-28 14:13 | 53.29768 | -93.02080 | 38008 ft | 438 kts | 220° |
| 2026-04-28 14:14 | 53.25115 | -93.08682 | 38017 ft | 438 kts | 220° |
| 2026-04-28 14:14 | 53.20461 | -93.15266 | 38017 ft | 439 kts | 220° |
| 2026-04-28 14:15 | 53.15804 | -93.21834 | 38017 ft | 440 kts | 220° |
| 2026-04-28 14:15 | 53.11128 | -93.28410 | 38017 ft | 440 kts | 220° |
| 2026-04-28 14:16 | 53.06449 | -93.34973 | 38017 ft | 440 kts | 219° |
| 2026-04-28 14:16 | 53.01956 | -93.41874 | 38019 ft | 440 kts | 224° |
| 2026-04-28 14:17 | 52.97607 | -93.49034 | 38017 ft | 441 kts | 224° |
| 2026-04-28 14:17 | 52.93225 | -93.56160 | 38017 ft | 441 kts | 223° |
| 2026-04-28 14:18 | 52.88811 | -93.63206 | 38017 ft | 441 kts | 223° |
| 2026-04-28 14:18 | 52.84375 | -93.70225 | 38019 ft | 441 kts | 223° |
| 2026-04-28 14:19 | 52.79937 | -93.77229 | 38018 ft | 441 kts | 223° |
| 2026-04-28 14:19 | 52.75520 | -93.84180 | 38017 ft | 441 kts | 223° |
| 2026-04-28 14:20 | 52.71076 | -93.91153 | 38017 ft | 441 kts | 223° |
| 2026-04-28 14:20 | 52.66620 | -93.98123 | 38018 ft | 441 kts | 223° |
| 2026-04-28 14:21 | 52.62160 | -94.05083 | 38019 ft | 442 kts | 223° |
| 2026-04-28 14:21 | 52.57699 | -94.12025 | 38016 ft | 442 kts | 222° |
| 2026-04-28 14:22 | 52.53227 | -94.18963 | 38017 ft | 442 kts | 222° |
| 2026-04-28 14:22 | 52.48749 | -94.25887 | 38017 ft | 443 kts | 222° |
| 2026-04-28 14:23 | 52.44260 | -94.32809 | 38018 ft | 443 kts | 222° |
| 2026-04-28 14:23 | 52.39774 | -94.39710 | 38019 ft | 443 kts | 222° |
| 2026-04-28 14:24 | 52.35277 | -94.46604 | 38020 ft | 443 kts | 222° |
| 2026-04-28 14:24 | 52.30775 | -94.53483 | 38017 ft | 443 kts | 222° |
| 2026-04-28 14:25 | 52.26276 | -94.60341 | 38009 ft | 443 kts | 222° |
| 2026-04-28 14:25 | 52.22531 | -94.66034 | 38008 ft | 442 kts | 222° |
| 2026-04-28 14:26 | 52.18032 | -94.72854 | 38020 ft | 442 kts | 222° |
| 2026-04-28 14:26 | 52.13516 | -94.79681 | 38026 ft | 443 kts | 222° |
| 2026-04-28 14:27 | 52.08264 | -94.87594 | 38034 ft | 443 kts | 222° |
| 2026-04-28 14:27 | 52.04478 | -94.93286 | 38036 ft | 443 kts | 222° |
| 2026-04-28 14:28 | 51.99954 | -95.00064 | 38039 ft | 442 kts | 222° |
| 2026-04-28 14:28 | 51.95514 | -95.06966 | 38046 ft | 442 kts | 224° |
| 2026-04-28 14:29 | 51.91150 | -95.14005 | 38045 ft | 443 kts | 224° |
| 2026-04-28 14:29 | 51.86773 | -95.21019 | 38045 ft | 443 kts | 224° |
| 2026-04-28 14:30 | 51.82381 | -95.27985 | 38046 ft | 442 kts | 224° |
| 2026-04-28 14:30 | 51.77980 | -95.34922 | 38045 ft | 442 kts | 224° |
| 2026-04-28 14:31 | 51.73574 | -95.41845 | 38045 ft | 442 kts | 223° |
| 2026-04-28 14:31 | 51.69165 | -95.48755 | 38054 ft | 442 kts | 224° |
| 2026-04-28 14:32 | 51.64751 | -95.55654 | 38054 ft | 442 kts | 223° |
| 2026-04-28 14:32 | 51.60334 | -95.62540 | 38054 ft | 442 kts | 223° |
| 2026-04-28 14:33 | 51.55913 | -95.69411 | 38054 ft | 442 kts | 223° |
| 2026-04-28 14:33 | 51.51491 | -95.76263 | 38054 ft | 442 kts | 223° |
| 2026-04-28 14:34 | 51.44873 | -95.86484 | 38054 ft | 442 kts | 223° |
| 2026-04-28 14:35 | 51.40444 | -95.93300 | 38063 ft | 442 kts | 223° |
| 2026-04-28 14:35 | 51.36007 | -96.00110 | 38006 ft | 443 kts | 223° |
| 2026-04-28 14:35 | 51.33704 | -96.03363 | 37732 ft | 440 kts | 219° |
| 2026-04-28 14:36 | 51.31339 | -96.06448 | 37339 ft | 436 kts | 219° |
| 2026-04-28 14:36 | 51.28987 | -96.09520 | 36734 ft | 437 kts | 219° |
| 2026-04-28 14:36 | 51.26644 | -96.12628 | 36017 ft | 440 kts | 219° |
| 2026-04-28 14:36 | 51.24284 | -96.15765 | 35328 ft | 442 kts | 219° |
| 2026-04-28 14:37 | 51.21916 | -96.18907 | 34657 ft | 443 kts | 218° |
| 2026-04-28 14:37 | 51.19541 | -96.22050 | 33994 ft | 443 kts | 218° |
| 2026-04-28 14:37 | 51.17176 | -96.25176 | 33320 ft | 443 kts | 218° |
| 2026-04-28 14:37 | 51.14798 | -96.28313 | 32609 ft | 443 kts | 218° |
| 2026-04-28 14:38 | 51.12422 | -96.31441 | 31886 ft | 443 kts | 218° |
| 2026-04-28 14:38 | 51.10051 | -96.34560 | 31190 ft | 443 kts | 217° |
| 2026-04-28 14:38 | 51.07691 | -96.37661 | 30720 ft | 437 kts | 217° |
| 2026-04-28 14:38 | 51.05363 | -96.40716 | 30242 ft | 431 kts | 217° |
| 2026-04-28 14:39 | 51.03061 | -96.43733 | 29675 ft | 427 kts | 217° |
| 2026-04-28 14:39 | 51.00777 | -96.46720 | 29140 ft | 423 kts | 217° |
| 2026-04-28 14:39 | 50.98516 | -96.49673 | 28586 ft | 419 kts | 217° |
| 2026-04-28 14:39 | 50.96281 | -96.52514 | 28058 ft | 415 kts | 214° |
| 2026-04-28 14:40 | 50.93963 | -96.55197 | 27535 ft | 410 kts | 213° |
| 2026-04-28 14:40 | 50.92403 | -96.56977 | 27177 ft | 408 kts | 214° |
| 2026-04-28 14:40 | 50.89377 | -96.60448 | 26466 ft | 404 kts | 214° |
| 2026-04-28 14:40 | 50.87114 | -96.63060 | 25931 ft | 401 kts | 215° |
| 2026-04-28 14:41 | 50.84869 | -96.65657 | 25391 ft | 398 kts | 215° |
| 2026-04-28 14:41 | 50.82648 | -96.68230 | 24861 ft | 395 kts | 215° |
| 2026-04-28 14:41 | 50.80436 | -96.70791 | 24323 ft | 392 kts | 216° |
| 2026-04-28 14:41 | 50.78235 | -96.73339 | 23781 ft | 390 kts | 216° |
| 2026-04-28 14:42 | 50.76055 | -96.75860 | 23259 ft | 387 kts | 216° |
| 2026-04-28 14:42 | 50.73887 | -96.78366 | 22728 ft | 385 kts | 216° |
| 2026-04-28 14:42 | 50.71730 | -96.80856 | 22199 ft | 383 kts | 216° |
| 2026-04-28 14:42 | 50.69582 | -96.83333 | 21678 ft | 381 kts | 216° |
| 2026-04-28 14:43 | 50.67445 | -96.85795 | 21151 ft | 380 kts | 216° |
| 2026-04-28 14:43 | 50.65316 | -96.88244 | 20651 ft | 378 kts | 216° |
| 2026-04-28 14:43 | 50.63200 | -96.90676 | 20133 ft | 376 kts | 217° |
| 2026-04-28 14:43 | 50.61091 | -96.93096 | 19625 ft | 374 kts | 217° |
| 2026-04-28 14:44 | 50.58979 | -96.95459 | 19104 ft | 372 kts | 213° |
| 2026-04-28 14:44 | 50.56658 | -96.97221 | 18605 ft | 371 kts | 200° |
| 2026-04-28 14:44 | 50.54178 | -96.98307 | 18094 ft | 371 kts | 195° |
| 2026-04-28 14:44 | 50.51677 | -96.99262 | 17572 ft | 369 kts | 195° |
| 2026-04-28 14:45 | 50.49190 | -97.00205 | 17147 ft | 367 kts | 195° |
| 2026-04-28 14:45 | 50.46707 | -97.01154 | 16599 ft | 368 kts | 195° |
| 2026-04-28 14:45 | 50.44225 | -97.02109 | 16019 ft | 368 kts | 195° |
| 2026-04-28 14:45 | 50.41741 | -97.03067 | 15483 ft | 366 kts | 195° |
| 2026-04-28 14:46 | 50.39269 | -97.03970 | 14942 ft | 365 kts | 192° |
| 2026-04-28 14:46 | 50.36752 | -97.04445 | 14439 ft | 364 kts | 186° |
| 2026-04-28 14:46 | 50.34236 | -97.04743 | 13923 ft | 362 kts | 186° |
| 2026-04-28 14:46 | 50.31730 | -97.05025 | 13400 ft | 361 kts | 186° |
| 2026-04-28 14:47 | 50.29233 | -97.05309 | 12878 ft | 359 kts | 186° |
| 2026-04-28 14:47 | 50.26742 | -97.05596 | 12354 ft | 358 kts | 186° |
| 2026-04-28 14:47 | 50.24291 | -97.05879 | 11837 ft | 357 kts | 186° |
| 2026-04-28 14:47 | 50.21781 | -97.06170 | 11308 ft | 356 kts | 186° |
| 2026-04-28 14:48 | 50.19337 | -97.06452 | 11095 ft | 346 kts | 186° |
| 2026-04-28 14:48 | 50.17006 | -97.06721 | 10981 ft | 334 kts | 186° |
| 2026-04-28 14:48 | 50.14735 | -97.06985 | 10880 ft | 323 kts | 186° |
| 2026-04-28 14:48 | 50.12528 | -97.07241 | 10752 ft | 313 kts | 186° |
| 2026-04-28 14:49 | 50.10410 | -97.07485 | 10612 ft | 295 kts | 186° |
| 2026-04-28 14:49 | 50.08411 | -97.07716 | 10334 ft | 284 kts | 186° |
| 2026-04-28 14:49 | 50.06462 | -97.07943 | 9945 ft | 278 kts | 186° |
| 2026-04-28 14:49 | 50.04538 | -97.08167 | 9590 ft | 277 kts | 187° |
| 2026-04-28 14:50 | 50.02602 | -97.08394 | 9235 ft | 281 kts | 187° |
| 2026-04-28 14:50 | 50.00640 | -97.08624 | 8877 ft | 286 kts | 187° |
| 2026-04-28 14:50 | 49.98638 | -97.08828 | 8509 ft | 291 kts | 184° |
| 2026-04-28 14:50 | 49.96595 | -97.08807 | 8184 ft | 295 kts | 180° |
| 2026-04-28 14:51 | 49.94544 | -97.08731 | 7888 ft | 294 kts | 181° |
| 2026-04-28 14:51 | 49.92504 | -97.08478 | 7547 ft | 296 kts | 169° |
| 2026-04-28 14:51 | 49.90645 | -97.07167 | 7222 ft | 295 kts | 142° |
| 2026-04-28 14:51 | 49.89081 | -97.05143 | 7026 ft | 291 kts | 137° |
| 2026-04-28 14:52 | 49.87581 | -97.03056 | 6999 ft | 285 kts | 136° |
| 2026-04-28 14:52 | 49.86137 | -97.01057 | 7004 ft | 272 kts | 137° |
| 2026-04-28 14:52 | 49.84753 | -96.99156 | 7008 ft | 260 kts | 137° |
| 2026-04-28 14:52 | 49.83424 | -96.97339 | 7004 ft | 251 kts | 137° |
| 2026-04-28 14:53 | 49.82113 | -96.95556 | 7006 ft | 251 kts | 137° |
| 2026-04-28 14:53 | 49.80799 | -96.93770 | 7002 ft | 252 kts | 137° |
| 2026-04-28 14:53 | 49.79484 | -96.91981 | 6995 ft | 252 kts | 137° |
| 2026-04-28 14:53 | 49.78162 | -96.90188 | 6995 ft | 252 kts | 137° |
| 2026-04-28 14:54 | 49.76860 | -96.88420 | 7003 ft | 253 kts | 136° |
| 2026-04-28 14:54 | 49.75782 | -96.86329 | 6995 ft | 247 kts | 110° |
| 2026-04-28 14:54 | 49.75331 | -96.83814 | 6993 ft | 241 kts | 95° |
| 2026-04-28 14:54 | 49.75084 | -96.81246 | 6992 ft | 242 kts | 92° |
| 2026-04-28 14:55 | 49.74864 | -96.78669 | 6987 ft | 242 kts | 92° |
| 2026-04-28 14:55 | 49.74648 | -96.76100 | 6909 ft | 239 kts | 92° |
| 2026-04-28 14:55 | 49.74424 | -96.73552 | 6673 ft | 240 kts | 95° |
| 2026-04-28 14:55 | 49.73763 | -96.71160 | 6369 ft | 249 kts | 126° |
| 2026-04-28 14:56 | 49.72393 | -96.69543 | 6131 ft | 251 kts | 158° |
| 2026-04-28 14:56 | 49.70693 | -96.69177 | 5882 ft | 247 kts | 191° |
| 2026-04-28 14:56 | 49.69142 | -96.70135 | 5611 ft | 238 kts | 223° |
| 2026-04-28 14:56 | 49.68183 | -96.72084 | 5357 ft | 224 kts | 256° |
| 2026-04-28 14:57 | 49.67996 | -96.74391 | 5125 ft | 214 kts | 278° |
| 2026-04-28 14:57 | 49.68079 | -96.75899 | 4977 ft | 212 kts | 281° |
| 2026-04-28 14:57 | 49.68331 | -96.78910 | 4632 ft | 211 kts | 282° |
| 2026-04-28 14:57 | 49.68529 | -96.81153 | 4401 ft | 210 kts | 282° |
| 2026-04-28 14:58 | 49.68729 | -96.83383 | 4155 ft | 210 kts | 282° |
| 2026-04-28 14:58 | 49.68939 | -96.85610 | 3885 ft | 209 kts | 284° |
| 2026-04-28 14:58 | 49.69399 | -96.87744 | 3393 ft | 215 kts | 302° |
| 2026-04-28 14:58 | 49.70259 | -96.89707 | 3040 ft | 222 kts | 309° |
| 2026-04-28 14:59 | 49.71204 | -96.91553 | 2882 ft | 215 kts | 310° |
| 2026-04-28 14:59 | 49.72128 | -96.93309 | 2782 ft | 206 kts | 311° |
| 2026-04-28 14:59 | 49.73017 | -96.94985 | 2680 ft | 198 kts | 311° |
| 2026-04-28 14:59 | 49.73869 | -96.96585 | 2555 ft | 187 kts | 311° |
| 2026-04-28 15:00 | 49.74662 | -96.98073 | 2435 ft | 171 kts | 311° |
| 2026-04-28 15:00 | 49.75387 | -96.99433 | 2421 ft | 161 kts | 311° |
| 2026-04-28 15:00 | 49.76100 | -97.00766 | 2426 ft | 161 kts | 311° |
| 2026-04-28 15:00 | 49.76811 | -97.02095 | 2423 ft | 161 kts | 311° |
| 2026-04-28 15:01 | 49.77525 | -97.03428 | 2419 ft | 161 kts | 311° |
| 2026-04-28 15:01 | 49.78225 | -97.04736 | 2419 ft | 159 kts | 312° |
| 2026-04-28 15:01 | 49.78925 | -97.06048 | 2419 ft | 157 kts | 312° |
| 2026-04-28 15:01 | 49.79620 | -97.07352 | 2423 ft | 157 kts | 312° |
| 2026-04-28 15:02 | 49.80305 | -97.08637 | 2457 ft | 153 kts | 312° |
| 2026-04-28 15:02 | 49.80981 | -97.09905 | 2428 ft | 154 kts | 312° |
| 2026-04-28 15:02 | 49.81668 | -97.11189 | 2420 ft | 156 kts | 311° |
| 2026-04-28 15:02 | 49.82374 | -97.12469 | 2418 ft | 157 kts | 313° |
| 2026-04-28 15:03 | 49.83083 | -97.13754 | 2420 ft | 157 kts | 308° |
| 2026-04-28 15:03 | 49.83830 | -97.14960 | 2309 ft | 150 kts | 321° |
| 2026-04-28 15:03 | 49.84589 | -97.15980 | 2100 ft | 139 kts | 320° |
| 2026-04-28 15:03 | 49.85273 | -97.16947 | 1926 ft | 126 kts | 319° |
| 2026-04-28 15:04 | 49.85891 | -97.17824 | 1747 ft | 116 kts | 319° |
| 2026-04-28 15:04 | 49.86495 | -97.18647 | 1608 ft | 116 kts | 320° |
| 2026-04-28 15:04 | 49.87100 | -97.19477 | 1449 ft | 116 kts | 320° |
| 2026-04-28 15:04 | 49.87706 | -97.20309 | 1319 ft | 117 kts | 321° |
| 2026-04-28 15:05 | 49.88319 | -97.21149 | 1137 ft | 117 kts | 320° |
| 2026-04-28 15:05 | 49.88926 | -97.21979 | 965 ft | 116 kts | 319° |
| 2026-04-28 15:05 | 49.89532 | -97.22816 | 830 ft | 118 kts | 319° |
| 2026-04-28 15:05 | 49.90107 | -97.23591 | 792 ft | 81 kts | 318° |
| 2026-04-28 15:06 | 49.90303 | -97.23861 | 790 ft | 0 kts | 319° |
| 2026-04-28 15:06 | 49.90342 | -97.23915 | 789 ft | 13 kts | 319° |
| 2026-04-28 15:06 | 49.90419 | -97.24018 | 791 ft | 16 kts | 318° |
| 2026-04-28 15:06 | 49.90525 | -97.24163 | 792 ft | 24 kts | 319° |
| 2026-04-28 15:07 | 49.90671 | -97.24330 | 793 ft | 25 kts | 350° |
| 2026-04-28 15:07 | 49.90758 | -97.24140 | 791 ft | 20 kts | 78° |
| 2026-04-28 15:07 | 49.90765 | -97.24087 | 792 ft | 1 kts | 78° |
| 2026-04-28 15:07 | 49.90768 | -97.24062 | 792 ft | 6 kts | 79° |
| 2026-04-28 15:08 | 49.90781 | -97.23948 | 793 ft | 15 kts | 79° |
| 2026-04-28 15:08 | 49.90807 | -97.23729 | 791 ft | 26 kts | 77° |
| 2026-04-28 15:08 | 49.90849 | -97.23443 | 790 ft | 28 kts | 78° |
| 2026-04-28 15:08 | 49.90879 | -97.23142 | 790 ft | 29 kts | 83° |
| 2026-04-28 15:09 | 49.90876 | -97.22837 | 790 ft | 28 kts | 115° |
| 2026-04-28 15:09 | 49.90769 | -97.22590 | 790 ft | 20 kts | 111° |
| 2026-04-28 15:09 | 49.90767 | -97.22374 | 790 ft | 21 kts | 91° |
| 2026-04-28 15:09 | 49.90756 | -97.22228 | 790 ft | 12 kts | 106° |
| 2026-04-28 15:10 | 49.90739 | -97.22207 | 790 ft | 3 kts | 161° |
| 2026-04-28 15:10 | 49.90715 | -97.22212 | 790 ft | 5 kts | 189° |
| 2026-04-28 15:10 | 49.90688 | -97.22220 | 790 ft | 0 kts | 190° |
| 2026-04-28 15:10 | 49.90683 | -97.22221 | 790 ft | 0 kts | 191° |